»·PEaware :: FFT2162 KLAX-KLAS

FFT2162 :: KLAX-KLAS

FLIGHT INFORMATION

Flight Status: Arrived
Operator:
Frontier Airlines
More flights by this operator :: More flights under this callsign
Pilot: Andrew J. (13363)
Aircraft: AIRBUS A321
(A321)
More flights by this aircraft type
Origin: KLAX Los Angeles Intl
United States
Destination: KLAS McCarran Intl
United States
More flights between these airports :: More routes between these airports
Route: ORCKA4 MISEN KEPEC6
File this flight plan on PilotEdge
Remarks: RMK / SIMBRIEF
Altitude:
(Current/Filed)
27,000ft
Speed:
(Current/Filed)
467kts
Departed: 01-Sep-20 02:46 PM
Arrived: 01-Sep-20 03:29 PM
Distance/Time
Traveled:
206nm/0:43
Distance/Time
To Go:
Arrived

Flight Plot

Page will automatically refresh every two minutes.

Flight plan parsing failed; only flown route is shown


Map Options




Map Legend


Flown Route
Filed Route
Departure Airport
Arrival Airport
Navaid (VOR, NDB)
Fix

Horizontal Profiles

Position Reports

Time Latitude Longitude Heading Altitude Ground
Speed
01-Sep-20 14:20 33.939854 -118.403726 314 127ft 0kts
01-Sep-20 14:21 33.939854 -118.403726 314 127ft 0kts
01-Sep-20 14:22 33.939854 -118.403726 314 127ft 0kts
01-Sep-20 14:23 33.939854 -118.403726 314 127ft 0kts
01-Sep-20 14:24 33.939854 -118.403726 314 127ft 0kts
01-Sep-20 14:25 33.939854 -118.403726 314 127ft 0kts
01-Sep-20 14:26 33.939854 -118.403726 314 127ft 0kts
01-Sep-20 14:27 33.939854 -118.403726 314 127ft 0kts
01-Sep-20 14:28 33.939854 -118.403726 314 127ft 0kts
01-Sep-20 14:29 33.939854 -118.403726 314 127ft 0kts
01-Sep-20 14:30 33.939853 -118.403725 314 127ft 0kts
01-Sep-20 14:31 33.939853 -118.403725 314 127ft 0kts
01-Sep-20 14:32 33.939658 -118.403486 322 127ft 2kts
01-Sep-20 14:33 33.939213 -118.403705 80 128ft 0kts
01-Sep-20 14:34 33.939206 -118.403793 84 128ft 0kts
01-Sep-20 14:35 33.939206 -118.403793 84 128ft 0kts
01-Sep-20 14:36 33.939206 -118.403793 84 128ft 0kts
01-Sep-20 14:37 33.939382 -118.402274 82 125ft 10kts
01-Sep-20 14:38 33.939880 -118.397206 83 118ft 19kts
01-Sep-20 14:39 33.940561 -118.390063 88 109ft 22kts
01-Sep-20 14:40 33.941137 -118.384033 82 106ft 4kts
01-Sep-20 14:41 33.940700 -118.381527 79 104ft 11kts
01-Sep-20 14:42 33.940783 -118.380103 132 104ft 0kts
01-Sep-20 14:43 33.940445 -118.379980 171 104ft 4kts
01-Sep-20 14:44 33.939839 -118.380305 262 104ft 0kts
01-Sep-20 14:45 33.938688 -118.391207 263 110ft 125kts
01-Sep-20 14:46 33.933160 -118.443197 261 2015ft 155kts
01-Sep-20 14:47 33.921600 -118.495231 247 3663ft 169kts
01-Sep-20 14:48 33.905082 -118.549570 248 5401ft 182kts
01-Sep-20 14:49 33.866703 -118.561617 119 6572ft 223kts
01-Sep-20 14:50 33.896577 -118.488905 52 7959ft 287kts
01-Sep-20 14:51 33.944598 -118.410828 56 10543ft 300kts
01-Sep-20 14:52 33.996359 -118.319044 56 11657ft 361kts
01-Sep-20 14:53 34.057550 -118.210974 56 12885ft 413kts
01-Sep-20 14:54 34.123236 -118.095079 56 15319ft 424kts
01-Sep-20 14:55 34.187669 -117.981296 56 17379ft 436kts
01-Sep-20 14:56 34.256543 -117.858708 56 19343ft 447kts
01-Sep-20 14:57 34.326831 -117.733148 56 21127ft 456kts
01-Sep-20 14:58 34.400289 -117.606915 54 22811ft 462kts
01-Sep-20 14:59 34.476001 -117.480464 55 24220ft 469kts
01-Sep-20 15:00 34.552823 -117.351184 55 25709ft 470kts
01-Sep-20 15:01 34.628167 -117.223418 55 27016ft 465kts
01-Sep-20 15:02 34.703403 -117.095741 55 27030ft 465kts
01-Sep-20 15:03 34.779408 -116.966433 55 27001ft 474kts
01-Sep-20 15:04 34.856123 -116.835117 53 26962ft 476kts
01-Sep-20 15:05 34.932665 -116.703999 53 26950ft 475kts
01-Sep-20 15:06 35.007408 -116.571283 54 26949ft 474kts
01-Sep-20 15:07 35.081810 -116.440053 52 26215ft 468kts
01-Sep-20 15:08 35.167832 -116.320600 45 24890ft 466kts
01-Sep-20 15:09 35.258646 -116.206801 44 23876ft 470kts
01-Sep-20 15:10 35.349446 -116.092552 44 22040ft 464kts
01-Sep-20 15:11 35.437434 -115.981436 44 19339ft 447kts
01-Sep-20 15:12 35.521823 -115.874539 44 17024ft 427kts
01-Sep-20 15:13 35.602752 -115.771724 44 14906ft 410kts
01-Sep-20 15:14 35.680292 -115.672892 44 13041ft 394kts
01-Sep-20 15:15 35.760384 -115.583777 22 12914ft 382kts
01-Sep-20 15:16 35.859599 -115.568928 1 11421ft 352kts
01-Sep-20 15:17 35.955403 -115.559664 22 10022ft 348kts
01-Sep-20 15:18 36.004349 -115.458537 67 10015ft 355kts
01-Sep-20 15:19 36.030931 -115.341579 78 9996ft 347kts
01-Sep-20 15:20 36.073683 -115.254212 47 9068ft 284kts
01-Sep-20 15:21 36.142603 -115.218339 17 6866ft 259kts
01-Sep-20 15:22 36.205523 -115.195994 16 5241ft 237kts
01-Sep-20 15:23 36.251776 -115.157935 93 4626ft 192kts
01-Sep-20 15:24 36.214599 -115.115931 151 4498ft 189kts
01-Sep-20 15:25 36.166684 -115.112664 202 3804ft 173kts
01-Sep-20 15:26 36.126788 -115.137545 203 2856ft 162kts
01-Sep-20 15:27 36.087058 -115.160154 204 2188ft 129kts
01-Sep-20 15:28 36.074997 -115.165262 87 2187ft 18kts
01-Sep-20 15:29 36.078045 -115.161426 91 2187ft 16kts
01-Sep-20 15:30 36.078034 -115.155646 89 2187ft 16kts
01-Sep-20 15:31 36.078793 -115.151207 89 2187ft 12kts
01-Sep-20 15:32 36.078499 -115.146414 94 2187ft 14kts
01-Sep-20 15:33 36.078294 -115.141125 89 2187ft 15kts
01-Sep-20 15:34 36.078304 -115.135543 89 2187ft 16kts
01-Sep-20 15:35 36.080534 -115.133740 0 2187ft 12kts
01-Sep-20 15:36 36.084032 -115.134751 300 2187ft 14kts
01-Sep-20 15:37 36.083252 -115.137182 146 2187ft 6kts
01-Sep-20 15:38 36.082910 -115.136879 142 2187ft 0kts
01-Sep-20 15:39 36.082910 -115.136879 142 2187ft 0kts
01-Sep-20 15:40 36.082910 -115.136879 142 2187ft 0kts
01-Sep-20 15:41 36.082910 -115.136879 142 2187ft 0kts
01-Sep-20 15:42 36.082910 -115.136879 142 2187ft 0kts
01-Sep-20 15:44 36.082910 -115.136879 142 2187ft 0kts

Navigation Log

Ident Type
Flight plan parsing failed, navigation log unavailable